createdAt,value
2022-08-02T00:00:41.039Z,100672.38
2022-08-02T00:03:09.153Z,100673.50
2022-08-02T00:05:37.388Z,100675.72
2022-08-02T00:08:06.091Z,100675.09
2022-08-02T00:10:35.602Z,100683.16
2022-08-02T00:13:03.715Z,100681.81
2022-08-02T00:15:31.816Z,100674.72
2022-08-02T00:17:59.938Z,100671.91
2022-08-02T00:20:28.089Z,100670.09
2022-08-02T00:22:56.210Z,100669.13
2022-08-02T00:25:24.225Z,100661.03
2022-08-02T00:27:53.729Z,100662.03
2022-08-02T00:30:21.794Z,100668.63
2022-08-02T00:32:49.987Z,100669.47
2022-08-02T00:35:18.238Z,100673.50
2022-08-02T00:37:46.342Z,100662.63
2022-08-02T00:40:14.553Z,100676.94
2022-08-02T00:42:44.132Z,100672.78
2022-08-02T00:45:13.542Z,100674.25
2022-08-02T00:47:41.647Z,100677.06
2022-08-02T00:50:10.595Z,100674.13
2022-08-02T00:52:38.656Z,100678.16
2022-08-02T00:55:07.579Z,100677.66
2022-08-02T00:57:35.701Z,100683.53
2022-08-02T01:00:04.956Z,100681.94
2022-08-02T01:02:34.530Z,100689.13
2022-08-02T01:05:02.771Z,100690.22
2022-08-02T01:07:30.827Z,100702.78
2022-08-02T01:10:00.180Z,100706.44
2022-08-02T01:12:28.598Z,100703.53
2022-08-02T01:14:59.580Z,100710.59
2022-08-02T01:17:33.534Z,100714.50
2022-08-02T01:20:09.665Z,100710.72
2022-08-02T01:23:03.426Z,100711.19
2022-08-02T01:25:58.166Z,100711.31
2022-08-02T01:28:33.519Z,100707.22
2022-08-02T01:31:05.537Z,100712.91
2022-08-02T01:33:42.636Z,100716.56
2022-08-02T01:36:14.030Z,100715.19
2022-08-02T01:38:46.919Z,100713.41
2022-08-02T01:41:19.723Z,100711.19
2022-08-02T01:43:52.547Z,100715.56
2022-08-02T01:46:22.676Z,100711.59
2022-08-02T01:48:54.410Z,100704.28
2022-08-02T01:51:44.955Z,100707.44
2022-08-02T01:54:16.609Z,100712.97
2022-08-02T01:56:46.439Z,100697.94
2022-08-02T01:59:22.842Z,100702.41
2022-08-02T02:01:55.123Z,100695.06
2022-08-02T02:04:24.672Z,100701.81
2022-08-02T02:06:54.000Z,100697.88
2022-08-02T02:09:23.726Z,100691.84
2022-08-02T02:12:06.507Z,100694.78
2022-08-02T02:14:51.769Z,100699.59
2022-08-02T02:17:57.101Z,100705.88
2022-08-02T02:20:15.713Z,100701.81
2022-08-02T02:22:44.122Z,100703.34
2022-08-02T02:25:15.071Z,100702.97
2022-08-02T02:27:49.469Z,100704.00
2022-08-02T02:30:19.608Z,100702.91
2022-08-02T02:32:49.278Z,100691.84
2022-08-02T02:35:18.422Z,100691.97
2022-08-02T02:37:49.325Z,100696.13
2022-08-02T02:40:18.986Z,100687.44
2022-08-02T02:42:49.591Z,100686.31
2022-08-02T02:45:21.428Z,100691.53
2022-08-02T02:47:50.875Z,100692.53
2022-08-02T02:50:20.030Z,100693.47
2022-08-02T02:52:49.267Z,100696.13
2022-08-02T02:55:18.913Z,100691.75
2022-08-02T02:57:47.701Z,100694.41
2022-08-02T03:00:16.298Z,100703.56
2022-08-02T03:02:46.846Z,100706.06
2022-08-02T03:05:16.676Z,100708.00
2022-08-02T03:07:44.767Z,100704.81
2022-08-02T03:10:12.871Z,100701.50
2022-08-02T03:12:41.163Z,100705.94
2022-08-02T03:15:11.338Z,100712.47
2022-08-02T03:17:43.410Z,100711.31
2022-08-02T03:20:15.322Z,100713.28
2022-08-02T03:22:44.871Z,100712.25
2022-08-02T03:25:13.707Z,100713.94
2022-08-02T03:27:42.184Z,100719.84
2022-08-02T03:30:12.563Z,100714.56
2022-08-02T03:32:42.948Z,100719.44
2022-08-02T03:35:19.870Z,100722.09
2022-08-02T03:37:49.517Z,100720.16
2022-08-02T03:40:18.912Z,100718.97
2022-08-02T03:42:47.649Z,100716.16
2022-08-02T03:45:16.133Z,100708.94
2022-08-02T03:47:45.344Z,100704.69
2022-08-02T03:50:15.239Z,100705.28
2022-08-02T03:52:43.836Z,100713.53
2022-08-02T03:55:13.793Z,100714.28
2022-08-02T03:57:42.785Z,100717.34
2022-08-02T04:00:13.029Z,100713.25
2022-08-02T04:02:41.046Z,100713.09
2022-08-02T04:05:09.793Z,100718.69
2022-08-02T04:08:02.435Z,100718.69
2022-08-02T04:10:27.591Z,100714.56
2022-08-02T04:12:55.195Z,100719.78
2022-08-02T04:15:24.549Z,100724.34
2022-08-02T04:17:57.560Z,100720.50
2022-08-02T04:20:29.390Z,100724.22
2022-08-02T04:23:02.899Z,100721.72
2022-08-02T04:25:38.081Z,100727.22
2022-08-02T04:28:17.797Z,100730.31
2022-08-02T04:30:48.317Z,100722.97
2022-08-02T04:33:17.454Z,100720.16
2022-08-02T04:35:46.184Z,100719.28
2022-08-02T04:38:16.142Z,100722.69
2022-08-02T04:40:51.743Z,100730.19
2022-08-02T04:43:20.291Z,100724.00
2022-08-02T04:45:50.700Z,100732.28
2022-08-02T04:48:18.896Z,100731.53
2022-08-02T04:50:47.101Z,100734.34
2022-08-02T04:53:16.926Z,100735.34
2022-08-02T04:55:45.115Z,100742.53
2022-08-02T04:58:38.678Z,100740.25
2022-08-02T05:01:01.963Z,100738.25
2022-08-02T05:03:30.227Z,100743.66
2022-08-02T05:05:58.593Z,100748.34
2022-08-02T05:08:28.228Z,100750.22
2022-08-02T05:10:56.365Z,100756.91
2022-08-02T05:13:24.454Z,100758.91
2022-08-02T05:15:52.526Z,100763.56
2022-08-02T05:18:20.751Z,100768.91
2022-08-02T05:20:48.812Z,100764.22
2022-08-02T05:23:16.945Z,100769.16
2022-08-02T05:25:46.394Z,100777.97
2022-08-02T05:28:14.511Z,100779.94
2022-08-02T05:30:42.563Z,100778.88
2022-08-02T05:33:11.801Z,100767.50
2022-08-02T05:35:39.855Z,100767.38
2022-08-02T05:38:10.199Z,100768.22
2022-08-02T05:40:54.393Z,100763.59
2022-08-02T05:43:24.789Z,100760.69
2022-08-02T05:45:54.469Z,100767.16
2022-08-02T05:48:25.328Z,100770.59
2022-08-02T05:51:02.160Z,100766.59
2022-08-02T05:53:37.671Z,100770.75
2022-08-02T05:56:16.872Z,100777.97
2022-08-02T05:58:53.955Z,100780.06
2022-08-02T06:01:29.205Z,100779.59
2022-08-02T06:03:58.911Z,100783.63
2022-08-02T06:06:27.118Z,100784.38
2022-08-02T06:09:00.525Z,100790.59
2022-08-02T06:11:37.636Z,100787.28
2022-08-02T06:14:08.264Z,100779.75
2022-08-02T06:16:42.466Z,100785.47
2022-08-02T06:19:13.637Z,100781.88
2022-08-02T06:22:35.268Z,100783.56
2022-08-02T06:24:32.459Z,100776.28
2022-08-02T06:27:02.193Z,100778.56
2022-08-02T06:29:38.512Z,100781.44
2022-08-02T06:32:08.988Z,100773.72
2022-08-02T06:34:38.258Z,100781.84
2022-08-02T06:37:14.885Z,100790.34
2022-08-02T06:39:46.554Z,100785.19
2022-08-02T06:42:25.550Z,100790.13
2022-08-02T06:44:58.571Z,100794.38
2022-08-02T06:47:27.384Z,100781.75
2022-08-02T06:49:58.280Z,100789.91
2022-08-02T06:52:29.714Z,100796.00
2022-08-02T06:54:59.831Z,100801.16
2022-08-02T06:57:28.719Z,100791.97
2022-08-02T07:00:01.659Z,100793.75
2022-08-02T07:02:30.484Z,100797.53
2022-08-02T07:04:58.804Z,100800.75
2022-08-02T07:07:27.904Z,100792.84
2022-08-02T07:10:01.172Z,100803.69
2022-08-02T07:12:32.019Z,100805.66
2022-08-02T07:15:02.910Z,100805.41
2022-08-02T07:17:31.513Z,100805.31
2022-08-02T07:20:00.343Z,100814.66
2022-08-02T07:22:29.462Z,100805.31
2022-08-02T07:24:59.227Z,100801.47
2022-08-02T07:27:28.356Z,100792.28
2022-08-02T07:29:57.277Z,100797.03
2022-08-02T07:32:29.264Z,100781.69
2022-08-02T07:34:58.512Z,100790.34
2022-08-02T07:37:53.114Z,100782.59
2022-08-02T07:40:19.510Z,100772.53
2022-08-02T07:42:52.030Z,100780.91
2022-08-02T07:45:22.976Z,100782.34
2022-08-02T07:47:53.075Z,100779.03
2022-08-02T07:50:22.663Z,100778.66
2022-08-02T07:52:57.218Z,100777.16
2022-08-02T07:55:39.283Z,100770.41
2022-08-02T07:58:11.978Z,100768.97
2022-08-02T08:00:43.621Z,100780.84
2022-08-02T08:03:13.605Z,100773.25
2022-08-02T08:05:42.102Z,100780.41
2022-08-02T08:08:15.020Z,100777.25
2022-08-02T08:10:45.634Z,100775.59
2022-08-02T08:13:13.757Z,100777.69
2022-08-02T08:15:41.917Z,100775.84
2022-08-02T08:18:21.705Z,100770.81
2022-08-02T08:20:50.121Z,100769.25
2022-08-02T08:23:18.291Z,100775.41
2022-08-02T08:25:46.537Z,100776.75
2022-08-02T08:28:14.789Z,100774.06
2022-08-02T08:30:42.915Z,100768.59
2022-08-02T08:33:11.068Z,100764.16
2022-08-02T08:35:40.585Z,100770.06
2022-08-02T08:38:09.284Z,100764.44
2022-08-02T08:40:37.716Z,100766.25
2022-08-02T08:43:06.666Z,100765.06
2022-08-02T08:45:34.962Z,100760.97
2022-08-02T08:48:09.203Z,100756.78
2022-08-02T08:50:45.947Z,100757.41
2022-08-02T08:53:15.997Z,100763.53
2022-08-02T08:55:44.738Z,100761.88
2022-08-02T08:58:13.920Z,100766.13
2022-08-02T09:00:42.508Z,100771.34
2022-08-02T09:03:11.661Z,100773.97
2022-08-02T09:05:43.290Z,100773.13
2022-08-02T09:08:16.712Z,100763.00
2022-08-02T09:10:47.090Z,100768.22
2022-08-02T09:13:37.794Z,100761.97
2022-08-02T09:16:12.450Z,100758.38
2022-08-02T09:18:45.142Z,100754.09
2022-08-02T09:21:17.242Z,100752.59
2022-08-02T09:23:47.361Z,100750.03
2022-08-02T09:26:17.361Z,100754.31
2022-08-02T09:28:47.791Z,100751.75
2022-08-02T09:31:18.053Z,100753.72
2022-08-02T09:33:52.511Z,100746.63
2022-08-02T09:36:22.806Z,100742.16
2022-08-02T09:38:56.761Z,100748.63
2022-08-02T09:41:26.940Z,100744.47
2022-08-02T09:44:04.854Z,100737.34
2022-08-02T09:46:37.694Z,100742.88
2022-08-02T09:49:09.338Z,100751.66
2022-08-02T09:51:40.945Z,100747.19
2022-08-02T09:54:11.751Z,100748.16
2022-08-02T09:56:49.447Z,100744.53
2022-08-02T09:59:19.561Z,100745.94
2022-08-02T10:01:51.723Z,100738.84
2022-08-02T10:04:31.652Z,100743.16
2022-08-02T10:07:03.913Z,100735.22
2022-08-02T10:09:33.239Z,100736.69
2022-08-02T10:12:03.586Z,100732.34
2022-08-02T10:14:35.577Z,100731.44
2022-08-02T10:17:05.000Z,100726.97
2022-08-02T10:20:01.730Z,100733.03
2022-08-02T10:22:25.528Z,100727.84
2022-08-02T10:24:54.890Z,100714.94
2022-08-02T10:27:25.648Z,100708.53
2022-08-02T10:29:58.836Z,100710.75
2022-08-02T10:32:31.006Z,100703.94
2022-08-02T10:35:19.877Z,100701.81
2022-08-02T10:38:00.998Z,100695.72
2022-08-02T10:40:44.860Z,100702.94
2022-08-02T10:43:14.089Z,100694.16
2022-08-02T10:45:42.199Z,100700.06
2022-08-02T10:48:11.921Z,100700.78
2022-08-02T10:50:56.596Z,100692.88
2022-08-02T10:53:30.951Z,100689.97
2022-08-02T10:56:00.256Z,100689.22
2022-08-02T10:58:30.363Z,100691.41
2022-08-02T11:00:59.963Z,100685.59
2022-08-02T11:03:42.216Z,100691.97
2022-08-02T11:06:25.620Z,100684.03
2022-08-02T11:09:33.376Z,100682.56
2022-08-02T11:12:04.357Z,100676.72
2022-08-02T11:14:33.931Z,100681.06
2022-08-02T11:17:22.674Z,100679.16
2022-08-02T11:20:18.664Z,100679.91
2022-08-02T11:22:48.167Z,100672.31
2022-08-02T11:26:03.157Z,100667.31
2022-08-02T11:28:30.598Z,100661.25
2022-08-02T11:30:59.682Z,100656.84
2022-08-02T11:33:35.958Z,100656.16
2022-08-02T11:36:06.979Z,100647.59
2022-08-02T11:38:35.168Z,100660.00
2022-08-02T11:41:06.026Z,100652.84
2022-08-02T11:43:35.040Z,100655.66
2022-08-02T11:46:04.106Z,100653.97
2022-08-02T11:48:32.942Z,100646.09
2022-08-02T11:51:04.954Z,100649.66
2022-08-02T11:53:41.798Z,100650.19
2022-08-02T11:56:11.490Z,100652.13
2022-08-02T11:58:41.947Z,100648.19
2022-08-02T12:01:10.294Z,100653.78
2022-08-02T12:03:39.814Z,100643.94
2022-08-02T12:06:16.378Z,100647.13
2022-08-02T12:08:54.462Z,100648.81
2022-08-02T12:11:24.194Z,100653.56
2022-08-02T12:13:56.529Z,100658.25
2022-08-02T12:16:43.915Z,100646.91
2022-08-02T12:19:23.195Z,100643.25
2022-08-02T12:22:09.239Z,100641.03
2022-08-02T12:24:38.281Z,100632.16
2022-08-02T12:27:08.530Z,100638.66
2022-08-02T12:29:58.161Z,100633.91
2022-08-02T12:32:27.591Z,100637.81
2022-08-02T12:35:02.811Z,100642.03
2022-08-02T12:37:30.977Z,100632.25
2022-08-02T12:39:59.840Z,100636.56
2022-08-02T12:42:29.173Z,100628.50
2022-08-02T12:44:59.557Z,100624.28
2022-08-02T12:47:31.146Z,100623.31
2022-08-02T12:50:14.015Z,100626.78
2022-08-02T12:52:42.160Z,100630.53
2022-08-02T12:55:24.206Z,100631.75
2022-08-02T12:57:55.940Z,100618.06
2022-08-02T13:00:26.378Z,100605.78
2022-08-02T13:02:54.544Z,100616.63
2022-08-02T13:05:22.663Z,100606.59
2022-08-02T13:07:50.992Z,100613.03
2022-08-02T13:10:19.512Z,100617.34
2022-08-02T13:12:47.717Z,100619.53
2022-08-02T13:15:49.087Z,100613.75
2022-08-02T13:18:06.345Z,100607.84
2022-08-02T13:20:34.396Z,100604.28
2022-08-02T13:23:03.796Z,100605.22
2022-08-02T13:25:32.493Z,100590.75
2022-08-02T13:28:00.678Z,100593.38
2022-08-02T13:30:31.031Z,100591.59
2022-08-02T13:33:01.165Z,100589.31
2022-08-02T13:35:29.868Z,100583.09
2022-08-02T13:37:58.093Z,100589.66
2022-08-02T13:40:26.687Z,100591.47
2022-08-02T13:42:54.811Z,100581.91
2022-08-02T13:45:23.002Z,100584.19
2022-08-02T13:47:57.379Z,100590.59
2022-08-02T13:50:33.198Z,100579.53
2022-08-02T13:53:01.545Z,100579.16
2022-08-02T13:55:29.739Z,100571.75
2022-08-02T13:57:58.058Z,100582.19
2022-08-02T14:00:35.049Z,100577.34
2022-08-02T14:03:07.241Z,100569.94
2022-08-02T14:05:47.793Z,100560.94
2022-08-02T14:08:18.207Z,100559.13
2022-08-02T14:10:47.414Z,100555.44
2022-08-02T14:13:15.815Z,100554.91
2022-08-02T14:15:44.753Z,100544.69
2022-08-02T14:18:15.282Z,100546.09
2022-08-02T14:20:44.965Z,100547.78
2022-08-02T14:23:13.335Z,100538.16
2022-08-02T14:25:42.055Z,100534.19
2022-08-02T14:28:10.141Z,100542.66
2022-08-02T14:30:38.671Z,100542.72
2022-08-02T14:33:06.851Z,100542.06
2022-08-02T14:35:36.483Z,100541.31
2022-08-02T14:38:04.766Z,100539.84
2022-08-02T14:40:33.163Z,100535.56
2022-08-02T14:43:01.581Z,100538.78
2022-08-02T14:45:40.217Z,100541.28
2022-08-02T14:48:13.020Z,100536.22
2022-08-02T14:50:42.515Z,100520.56
2022-08-02T14:53:12.652Z,100517.13
2022-08-02T14:55:42.519Z,100515.66
2022-08-02T14:58:10.826Z,100506.41
2022-08-02T15:00:41.072Z,100506.75
2022-08-02T15:03:10.694Z,100512.22
2022-08-02T15:05:38.880Z,100512.22
2022-08-02T15:08:08.493Z,100507.19
2022-08-02T15:10:36.859Z,100513.09
2022-08-02T15:13:04.966Z,100509.22
2022-08-02T15:15:33.298Z,100511.38
2022-08-02T15:18:12.339Z,100510.97
2022-08-02T15:20:41.486Z,100509.63
2022-08-02T15:23:15.229Z,100507.53
2022-08-02T15:25:44.773Z,100500.28
2022-08-02T15:28:12.904Z,100501.72
2022-08-02T15:30:41.142Z,100500.41
2022-08-02T15:33:09.243Z,100496.09
2022-08-02T15:35:37.430Z,100505.31
2022-08-02T15:38:05.589Z,100498.88
2022-08-02T15:40:35.100Z,100499.66
2022-08-02T15:43:03.319Z,100501.06
2022-08-02T15:45:31.438Z,100499.66
2022-08-02T15:47:59.653Z,100494.63
2022-08-02T15:50:28.215Z,100494.63
2022-08-02T15:52:56.310Z,100489.59
2022-08-02T15:55:24.502Z,100488.19
2022-08-02T15:57:54.074Z,100491.06
2022-08-02T16:00:22.333Z,100494.59
2022-08-02T16:02:50.474Z,100486.72
2022-08-02T16:05:19.964Z,100489.53
2022-08-02T16:07:48.447Z,100491.66
2022-08-02T16:10:18.017Z,100494.41
2022-08-02T16:12:46.142Z,100483.09
2022-08-02T16:15:15.772Z,100498.09
2022-08-02T16:17:53.550Z,100485.16
2022-08-02T16:20:23.116Z,100487.34
2022-08-02T16:22:51.380Z,100482.28
2022-08-02T16:25:19.630Z,100481.47
2022-08-02T16:28:06.130Z,100479.31
2022-08-02T16:30:37.397Z,100478.53
2022-08-02T16:33:05.686Z,100477.81
2022-08-02T16:35:34.827Z,100471.16
2022-08-02T16:38:02.710Z,100468.94
2022-08-02T16:40:32.550Z,100468.78
2022-08-02T16:43:00.788Z,100473.25
2022-08-02T16:45:29.551Z,100466.75
2022-08-02T16:48:05.452Z,100468.28
2022-08-02T16:50:34.600Z,100471.81
2022-08-02T16:55:51.493Z,100464.13
2022-08-02T16:58:20.255Z,100452.72
2022-08-02T17:00:48.371Z,100462.66
2022-08-02T17:03:18.679Z,100457.03
2022-08-02T17:05:55.690Z,100461.31
2022-08-02T17:08:31.900Z,100451.84
2022-08-02T17:11:03.430Z,100453.88
2022-08-02T17:13:34.334Z,100450.31
2022-08-02T17:16:26.380Z,100449.63
2022-08-02T17:18:57.486Z,100456.06
2022-08-02T17:21:25.650Z,100456.63
2022-08-02T17:24:05.624Z,100447.94
2022-08-02T17:26:36.454Z,100454.88
2022-08-02T17:29:16.447Z,100446.09
2022-08-02T17:32:04.791Z,100450.22
2022-08-02T17:34:37.744Z,100451.47
2022-08-02T17:37:06.745Z,100455.78
2022-08-02T17:39:44.337Z,100450.69
2022-08-02T17:42:23.249Z,100444.06
2022-08-02T17:44:53.875Z,100447.47
2022-08-02T17:47:22.304Z,100445.28
2022-08-02T17:49:53.064Z,100455.03
2022-08-02T17:52:50.201Z,100450.66
2022-08-02T17:55:12.881Z,100463.47
2022-08-02T17:57:58.035Z,100456.31
2022-08-02T18:00:33.939Z,100448.03
2022-08-02T18:03:05.760Z,100453.06
2022-08-02T18:05:40.068Z,100447.78
2022-08-02T18:08:22.787Z,100455.31
2022-08-02T18:10:52.303Z,100447.88
2022-08-02T18:13:20.786Z,100451.88
2022-08-02T18:15:48.932Z,100455.84
2022-08-02T18:18:19.179Z,100447.72
2022-08-02T18:21:16.258Z,100450.75
2022-08-02T18:23:48.618Z,100439.03
2022-08-02T18:26:17.406Z,100443.09
2022-08-02T18:28:49.378Z,100452.75
2022-08-02T18:31:22.739Z,100452.44
2022-08-02T18:33:58.233Z,100452.84
2022-08-02T18:36:47.391Z,100451.34
2022-08-02T18:39:16.373Z,100443.16
2022-08-02T18:41:45.215Z,100444.91
2022-08-02T18:44:16.905Z,100450.22
2022-08-02T18:46:49.369Z,100447.25
2022-08-02T18:49:17.782Z,100452.72
2022-08-02T18:51:47.335Z,100454.06
2022-08-02T18:54:16.182Z,100448.81
2022-08-02T18:56:55.801Z,100452.72
2022-08-02T18:59:25.546Z,100453.34
2022-08-02T19:01:53.705Z,100455.09
2022-08-02T19:04:27.037Z,100444.38
2022-08-02T19:07:05.412Z,100444.47
2022-08-02T19:09:40.259Z,100444.66
2022-08-02T19:12:11.322Z,100440.72
2022-08-02T19:14:40.058Z,100440.34
2022-08-02T19:17:53.388Z,100449.28
2022-08-02T19:19:56.588Z,100447.09
2022-08-02T19:22:27.223Z,100449.63
2022-08-02T19:25:00.085Z,100450.25
2022-08-02T19:27:32.181Z,100446.09
2022-08-02T19:30:02.793Z,100445.03
2022-08-02T19:32:42.984Z,100448.44
2022-08-02T19:35:29.745Z,100449.94
2022-08-02T19:38:09.171Z,100451.31
2022-08-02T19:40:38.591Z,100450.25
2022-08-02T19:44:27.203Z,100449.25
2022-08-02T19:45:57.002Z,100456.59
2022-08-02T19:48:26.831Z,100452.34
2022-08-02T19:51:00.892Z,100448.19
2022-08-02T19:53:47.636Z,100455.50
2022-08-02T19:56:24.734Z,100454.56
2022-08-02T19:58:54.833Z,100462.09
2022-08-02T20:01:37.383Z,100466.16
2022-08-02T20:04:13.151Z,100459.31
2022-08-02T20:06:45.586Z,100460.47
2022-08-02T20:09:17.120Z,100461.97
2022-08-02T20:11:54.187Z,100457.53
2022-08-02T20:14:27.033Z,100459.66
2022-08-02T20:16:56.745Z,100464.25
2022-08-02T20:19:25.148Z,100455.28
2022-08-02T20:21:59.572Z,100460.06
2022-08-02T20:24:30.069Z,100458.97
2022-08-02T20:26:59.809Z,100453.75
2022-08-02T20:29:43.340Z,100455.53
2022-08-02T20:32:21.814Z,100455.56
2022-08-02T20:34:52.656Z,100454.97
2022-08-02T20:37:59.223Z,100454.56
2022-08-02T20:40:16.555Z,100449.13
2022-08-02T20:42:47.914Z,100446.56
2022-08-02T20:45:16.571Z,100457.69
2022-08-02T20:47:45.843Z,100451.75
2022-08-02T20:50:36.574Z,100455.69
2022-08-02T20:53:05.607Z,100449.22
2022-08-02T20:55:40.794Z,100457.53
2022-08-02T20:58:11.867Z,100460.19
2022-08-02T21:00:40.437Z,100459.84
2022-08-02T21:03:10.089Z,100460.88
2022-08-02T21:05:54.673Z,100465.59
2022-08-02T21:08:24.359Z,100455.75
2022-08-02T21:10:55.522Z,100458.50
2022-08-02T21:13:26.107Z,100464.50
2022-08-02T21:16:00.674Z,100461.50
2022-08-02T21:18:40.376Z,100457.75
2022-08-02T21:21:10.176Z,100458.28
2022-08-02T21:23:48.632Z,100455.56
2022-08-02T21:26:28.554Z,100456.78
2022-08-02T21:29:00.784Z,100453.72
2022-08-02T21:31:32.184Z,100456.28
2022-08-02T21:34:03.807Z,100454.66
2022-08-02T21:36:51.011Z,100461.13
2022-08-02T21:39:20.513Z,100461.22
2022-08-02T21:41:50.101Z,100460.16
2022-08-02T21:44:19.546Z,100457.97
2022-08-02T21:50:08.673Z,100464.22
2022-08-02T21:52:25.933Z,100464.47
2022-08-02T21:54:55.078Z,100458.13
2022-08-02T21:57:25.193Z,100463.56
2022-08-02T22:00:04.526Z,100462.69
2022-08-02T22:02:36.993Z,100463.75
2022-08-02T22:05:05.762Z,100473.41
2022-08-02T22:07:45.735Z,100472.63
2022-08-02T22:10:14.072Z,100480.69
2022-08-02T22:12:45.391Z,100480.94
2022-08-02T22:15:13.538Z,100485.56
2022-08-02T22:17:53.625Z,100492.31
2022-08-02T22:20:29.157Z,100494.81
2022-08-02T22:22:58.525Z,100487.34
2022-08-02T22:25:36.532Z,100495.69
2022-08-02T22:28:36.533Z,100495.81
2022-08-02T22:31:00.217Z,100495.31
2022-08-02T22:33:47.135Z,100487.19
2022-08-02T22:36:29.080Z,100489.88
2022-08-02T22:38:57.286Z,100485.50
2022-08-02T22:41:25.503Z,100494.47
2022-08-02T22:44:15.176Z,100497.59
2022-08-02T22:46:46.912Z,100490.63
2022-08-02T22:52:07.024Z,100497.81
2022-08-02T22:54:35.061Z,100489.88
2022-08-02T22:57:03.099Z,100485.28
2022-08-02T22:58:35.329Z,100468.22
2022-08-02T22:59:09.878Z,100500.31
2022-08-02T22:59:10.806Z,100459.97
2022-08-02T22:59:39.887Z,100499.25
2022-08-02T23:02:08.783Z,100493.84
2022-08-02T23:04:37.546Z,100497.06
2022-08-02T23:07:06.028Z,100496.59
2022-08-02T23:09:34.455Z,100496.19
2022-08-02T23:12:02.816Z,100497.22
2022-08-02T23:14:31.512Z,100498.34
2022-08-02T23:17:18.712Z,100498.75
2022-08-02T23:19:53.032Z,100503.19
2022-08-02T23:22:29.307Z,100494.94
2022-08-02T23:25:01.186Z,100495.22
2022-08-02T23:27:29.761Z,100496.47
2022-08-02T23:29:58.224Z,100493.03
2022-08-02T23:32:28.415Z,100486.38
2022-08-02T23:34:58.257Z,100495.84
2022-08-02T23:37:26.407Z,100499.44
2022-08-02T23:39:54.547Z,100495.16
2022-08-02T23:42:23.366Z,100495.59
2022-08-02T23:44:51.833Z,100503.03
2022-08-02T23:47:20.257Z,100501.41
2022-08-02T23:49:49.805Z,100503.41
2022-08-02T23:52:18.558Z,100502.03
2022-08-02T23:54:46.838Z,100503.25
2022-08-02T23:57:20.920Z,100504.81
2022-08-02T23:59:50.998Z,100500.22
